createdAt,value
2023-02-28T00:02:18.465Z,6.73
2023-02-28T00:05:06.309Z,3.37
2023-02-28T00:07:53.814Z,4.93
2023-02-28T00:10:41.207Z,4.00
2023-02-28T00:13:28.565Z,3.03
2023-02-28T00:16:23.126Z,3.60
2023-02-28T00:19:10.600Z,3.60
2023-02-28T00:21:57.983Z,6.30
2023-02-28T00:24:45.503Z,3.80
2023-02-28T00:27:32.857Z,4.40
2023-02-28T00:30:21.646Z,4.43
2023-02-28T00:33:09.011Z,3.00
2023-02-28T00:36:04.361Z,5.97
2023-02-28T00:38:51.777Z,3.70
2023-02-28T00:41:39.132Z,4.23
2023-02-28T00:44:26.472Z,4.10
2023-02-28T00:47:13.831Z,5.23
2023-02-28T00:50:01.517Z,6.23
2023-02-28T00:52:49.446Z,4.90
2023-02-28T00:55:36.774Z,4.80
2023-02-28T00:58:24.114Z,5.53
2023-02-28T01:01:11.717Z,5.03
2023-02-28T01:03:59.153Z,4.93
2023-02-28T01:06:46.531Z,5.27
2023-02-28T01:09:33.894Z,4.07
2023-02-28T01:12:21.235Z,3.40
2023-02-28T01:15:08.838Z,3.00
2023-02-28T01:17:56.213Z,10.17
2023-02-28T01:20:43.752Z,5.37
2023-02-28T01:23:31.113Z,6.30
2023-02-28T01:26:20.224Z,4.17
2023-02-28T01:29:07.579Z,5.30
2023-02-28T01:31:54.992Z,4.73
2023-02-28T01:34:42.397Z,5.57
2023-02-28T01:37:29.837Z,12.70
2023-02-28T01:40:17.258Z,9.40
2023-02-28T01:43:04.700Z,7.43
2023-02-28T01:45:52.979Z,15.80
2023-02-28T01:48:43.930Z,9.60
2023-02-28T01:51:35.303Z,9.77
2023-02-28T01:54:25.676Z,11.20
2023-02-28T01:57:15.939Z,7.10
2023-02-28T02:00:08.352Z,7.87
2023-02-28T02:02:57.373Z,8.07
2023-02-28T02:05:48.460Z,10.73
2023-02-28T02:08:35.882Z,9.30
2023-02-28T02:11:24.476Z,7.33
2023-02-28T02:14:35.346Z,6.40
2023-02-28T02:17:29.312Z,8.60
2023-02-28T02:20:25.505Z,5.67
2023-02-28T02:23:31.804Z,6.37
2023-02-28T02:26:32.427Z,6.13
2023-02-28T02:29:25.691Z,6.00
2023-02-28T02:32:13.077Z,4.93
2023-02-28T02:35:18.886Z,9.40
2023-02-28T02:38:25.040Z,10.63
2023-02-28T02:41:12.393Z,7.50
2023-02-28T02:44:08.790Z,7.57
2023-02-28T02:46:59.782Z,5.33
2023-02-28T02:49:58.065Z,4.63
2023-02-28T02:52:50.689Z,5.50
2023-02-28T02:55:40.322Z,3.83
2023-02-28T02:58:29.540Z,17.70
2023-02-28T03:01:28.633Z,25.40
2023-02-28T03:04:19.180Z,24.97
2023-02-28T03:07:06.541Z,18.73
2023-02-28T03:09:54.637Z,19.20
2023-02-28T03:12:43.417Z,9.87
2023-02-28T03:15:38.011Z,10.00
2023-02-28T03:18:40.681Z,10.87
2023-02-28T03:21:31.737Z,5.40
2023-02-28T03:24:19.135Z,6.00
2023-02-28T03:27:09.071Z,6.87
2023-02-28T03:30:06.642Z,9.77
2023-02-28T03:32:53.962Z,5.47
2023-02-28T03:35:56.079Z,6.97
2023-02-28T03:39:06.683Z,4.90
2023-02-28T03:41:59.553Z,4.30
2023-02-28T03:44:52.696Z,6.07
2023-02-28T03:47:40.001Z,5.07
2023-02-28T03:50:33.221Z,4.00
2023-02-28T03:53:22.979Z,6.23
2023-02-28T03:56:13.771Z,3.57
2023-02-28T03:59:07.845Z,4.73
2023-02-28T04:01:56.240Z,5.97
2023-02-28T04:04:49.650Z,6.00
2023-02-28T04:07:37.295Z,7.03
2023-02-28T04:10:24.708Z,5.83
2023-02-28T04:13:12.053Z,6.47
2023-02-28T04:15:59.905Z,5.33
2023-02-28T04:18:47.318Z,8.77
2023-02-28T04:21:36.677Z,5.50
2023-02-28T04:24:25.382Z,4.07
2023-02-28T04:27:12.755Z,4.37
2023-02-28T04:30:00.119Z,6.13
2023-02-28T04:32:47.525Z,4.53
2023-02-28T04:35:34.935Z,5.10
2023-02-28T04:38:22.294Z,5.70
2023-02-28T04:41:09.635Z,6.40
2023-02-28T04:43:57.219Z,8.13
2023-02-28T04:46:44.969Z,5.33
2023-02-28T04:49:32.341Z,5.00
2023-02-28T04:52:19.766Z,6.33
2023-02-28T04:55:07.416Z,6.77
2023-02-28T04:57:54.762Z,5.43
2023-02-28T05:00:42.166Z,4.83
2023-02-28T05:03:29.568Z,6.70
2023-02-28T05:06:17.361Z,8.93
2023-02-28T05:09:04.737Z,6.37
2023-02-28T05:11:52.130Z,5.57
2023-02-28T05:14:39.512Z,6.23
2023-02-28T05:17:26.845Z,5.63
2023-02-28T05:20:16.265Z,4.80
2023-02-28T05:23:04.343Z,7.83
2023-02-28T05:25:53.092Z,4.50
2023-02-28T05:28:40.438Z,4.80
2023-02-28T05:31:28.409Z,6.90
2023-02-28T05:34:17.147Z,6.30
2023-02-28T05:37:04.897Z,7.10
2023-02-28T05:39:52.243Z,8.87
2023-02-28T05:42:40.025Z,5.13
2023-02-28T05:45:27.450Z,5.83
2023-02-28T05:48:14.804Z,4.30
2023-02-28T05:51:02.212Z,4.93
2023-02-28T05:53:50.375Z,5.73
2023-02-28T05:56:39.957Z,5.57
2023-02-28T05:59:27.386Z,8.80
2023-02-28T06:02:16.157Z,5.67
2023-02-28T06:05:03.521Z,6.40
2023-02-28T06:07:50.861Z,4.90
2023-02-28T06:10:38.233Z,5.90
2023-02-28T06:13:25.601Z,5.03
2023-02-28T06:16:13.162Z,5.97
2023-02-28T06:19:01.739Z,5.23
2023-02-28T06:21:51.672Z,6.93
2023-02-28T06:24:39.079Z,4.10
2023-02-28T06:27:26.417Z,6.93
2023-02-28T06:30:14.017Z,9.43
2023-02-28T06:33:01.342Z,32.03
2023-02-28T06:35:51.372Z,29.27
2023-02-28T06:38:38.939Z,18.70
2023-02-28T06:41:27.954Z,9.40
2023-02-28T06:44:19.316Z,11.73
2023-02-28T06:47:07.593Z,6.97
2023-02-28T06:49:54.957Z,6.97
2023-02-28T06:52:42.267Z,7.17
2023-02-28T06:55:30.762Z,9.90
2023-02-28T06:58:21.396Z,6.57
2023-02-28T07:01:09.623Z,9.30
2023-02-28T07:03:57.114Z,5.97
2023-02-28T07:06:44.499Z,6.60
2023-02-28T07:09:31.928Z,6.57
2023-02-28T07:12:19.392Z,6.43
2023-02-28T07:15:07.172Z,6.50
2023-02-28T07:17:54.544Z,7.27
2023-02-28T07:20:41.924Z,5.77
2023-02-28T07:23:29.314Z,6.27
2023-02-28T07:26:17.970Z,6.43
2023-02-28T07:29:05.606Z,6.40
2023-02-28T07:31:54.153Z,6.50
2023-02-28T07:34:41.778Z,10.90
2023-02-28T07:37:32.485Z,6.53
2023-02-28T07:40:19.958Z,6.57
2023-02-28T07:43:07.638Z,11.50
2023-02-28T07:45:55.154Z,8.73
2023-02-28T07:48:42.912Z,8.70
2023-02-28T07:51:31.143Z,8.53
2023-02-28T07:54:18.950Z,8.57
2023-02-28T07:57:06.366Z,6.60
2023-02-28T07:59:53.926Z,10.90
2023-02-28T08:02:41.444Z,6.27
2023-02-28T08:05:29.041Z,7.23
2023-02-28T08:08:17.614Z,9.37
2023-02-28T08:11:05.367Z,7.30
2023-02-28T08:13:53.139Z,7.03
2023-02-28T08:16:40.595Z,5.40
2023-02-28T08:19:28.195Z,6.37
2023-02-28T08:22:15.566Z,6.90
2023-02-28T08:25:03.051Z,6.53
2023-02-28T08:27:52.387Z,5.93
2023-02-28T08:30:41.870Z,7.30
2023-02-28T08:33:29.812Z,10.07
2023-02-28T08:36:19.600Z,6.90
2023-02-28T08:39:07.569Z,20.73
2023-02-28T08:42:06.751Z,4.10
2023-02-28T08:44:54.736Z,8.47
2023-02-28T08:47:42.516Z,7.20
2023-02-28T08:50:29.956Z,5.60
2023-02-28T08:53:17.466Z,7.00
2023-02-28T08:56:06.745Z,8.80
2023-02-28T08:58:56.358Z,11.10
2023-02-28T09:01:44.604Z,12.77
2023-02-28T09:04:32.032Z,13.67
2023-02-28T09:07:19.504Z,14.10
2023-02-28T09:10:07.233Z,10.47
2023-02-28T09:12:54.646Z,10.93
2023-02-28T09:15:42.211Z,8.33
2023-02-28T09:18:29.702Z,8.23
2023-02-28T09:21:19.104Z,7.13
2023-02-28T09:24:06.721Z,7.07
2023-02-28T09:27:03.483Z,4.60
2023-02-28T09:29:51.965Z,5.23
2023-02-28T09:32:39.318Z,6.00
2023-02-28T09:35:27.779Z,4.60
2023-02-28T09:38:15.353Z,6.83
2023-02-28T09:41:11.865Z,3.80
2023-02-28T09:44:01.638Z,3.42
2023-02-28T09:46:51.334Z,3.50
2023-02-28T09:49:44.491Z,2.70
2023-02-28T09:52:33.258Z,2.10
2023-02-28T09:55:20.651Z,3.95
2023-02-28T09:58:16.951Z,3.55
2023-02-28T10:01:08.521Z,4.53
2023-02-28T10:04:01.982Z,3.15
2023-02-28T10:06:51.478Z,2.80
2023-02-28T10:09:39.132Z,4.07
2023-02-28T10:12:27.603Z,3.53
2023-02-28T10:15:18.408Z,3.03
2023-02-28T10:18:09.298Z,5.28
2023-02-28T10:20:57.770Z,4.78
2023-02-28T10:23:46.004Z,6.20
2023-02-28T10:26:33.978Z,4.30
2023-02-28T10:29:21.350Z,4.75
2023-02-28T10:32:08.810Z,3.60
2023-02-28T10:35:16.446Z,3.92
2023-02-28T10:38:11.826Z,4.60
2023-02-28T10:41:10.104Z,6.68
2023-02-28T10:44:16.336Z,4.93
2023-02-28T10:47:03.930Z,5.68
2023-02-28T10:49:53.975Z,4.97
2023-02-28T10:52:41.778Z,3.38
2023-02-28T10:55:29.717Z,4.38
2023-02-28T10:58:24.249Z,3.70
2023-02-28T11:01:16.158Z,3.65
2023-02-28T11:04:03.827Z,3.80
2023-02-28T11:07:00.606Z,5.03
2023-02-28T11:09:50.269Z,3.25
2023-02-28T11:12:47.045Z,4.38
2023-02-28T11:15:38.390Z,3.95
2023-02-28T11:18:43.764Z,4.18
2023-02-28T11:21:34.697Z,5.78
2023-02-28T11:24:28.186Z,4.65
2023-02-28T11:27:28.014Z,6.30
2023-02-28T11:30:28.965Z,3.60
2023-02-28T11:33:29.745Z,3.83
2023-02-28T11:36:21.327Z,5.22
2023-02-28T11:39:14.035Z,3.78
2023-02-28T11:42:04.457Z,2.88
2023-02-28T11:45:10.464Z,3.97
2023-02-28T11:48:01.005Z,9.02
2023-02-28T11:50:54.111Z,6.15
2023-02-28T11:53:53.757Z,5.20
2023-02-28T11:56:41.096Z,4.55
2023-02-28T11:59:31.488Z,3.22
2023-02-28T12:02:24.688Z,2.15
2023-02-28T12:05:15.141Z,3.45
2023-02-28T12:08:26.456Z,3.83
2023-02-28T12:11:13.797Z,3.50
2023-02-28T12:14:13.958Z,3.67
2023-02-28T12:17:01.958Z,4.27
2023-02-28T12:20:02.306Z,3.93
2023-02-28T12:23:10.149Z,5.73
2023-02-28T12:26:15.421Z,5.47
2023-02-28T12:29:05.974Z,4.17
2023-02-28T12:31:58.467Z,3.70
2023-02-28T12:34:45.850Z,3.33
2023-02-28T12:37:39.209Z,3.47
2023-02-28T12:40:44.305Z,2.80
2023-02-28T12:43:37.728Z,4.47
2023-02-28T12:46:27.136Z,3.47
2023-02-28T12:49:27.901Z,5.97
2023-02-28T12:52:17.443Z,2.77
2023-02-28T12:55:17.416Z,2.37
2023-02-28T12:58:20.120Z,11.93
2023-02-28T13:01:28.979Z,8.27
2023-02-28T13:04:16.703Z,3.33
2023-02-28T13:07:07.259Z,3.00
2023-02-28T13:09:56.745Z,2.53
2023-02-28T13:12:55.724Z,2.47
2023-02-28T13:15:58.377Z,3.20
2023-02-28T13:18:46.799Z,4.00
2023-02-28T13:21:42.712Z,3.17
2023-02-28T13:24:41.258Z,3.77
2023-02-28T13:27:35.922Z,5.53
2023-02-28T13:30:42.184Z,4.10
2023-02-28T13:33:29.795Z,2.77
2023-02-28T13:36:20.313Z,2.43
2023-02-28T13:39:26.621Z,3.77
2023-02-28T13:42:32.388Z,2.87
2023-02-28T13:45:24.124Z,2.83
2023-02-28T13:48:20.093Z,3.00
2023-02-28T13:51:26.439Z,2.03
2023-02-28T13:54:21.239Z,3.10
2023-02-28T13:57:14.734Z,3.43
2023-02-28T14:00:18.014Z,2.47
2023-02-28T14:03:14.698Z,3.63
2023-02-28T14:06:20.161Z,3.43
2023-02-28T14:09:25.927Z,2.83
2023-02-28T14:12:32.243Z,2.40
2023-02-28T14:15:32.333Z,3.57
2023-02-28T14:18:19.775Z,4.60
2023-02-28T14:21:10.397Z,3.97
2023-02-28T14:24:10.118Z,4.33
2023-02-28T14:26:57.677Z,3.53
2023-02-28T14:29:56.478Z,2.73
2023-02-28T14:33:00.326Z,4.30
2023-02-28T14:35:55.198Z,4.90
2023-02-28T14:38:52.888Z,3.63
2023-02-28T14:41:41.580Z,4.25
2023-02-28T14:44:29.486Z,4.38
2023-02-28T14:47:17.373Z,4.47
2023-02-28T14:50:05.737Z,2.43
2023-02-28T14:52:56.400Z,5.23
2023-02-28T14:55:46.454Z,3.10
2023-02-28T14:58:35.230Z,2.80
2023-02-28T15:01:23.579Z,4.63
2023-02-28T15:04:20.273Z,4.00
2023-02-28T15:07:16.985Z,2.60
2023-02-28T15:10:13.645Z,3.13
2023-02-28T15:13:03.235Z,3.90
2023-02-28T15:16:08.491Z,2.97
2023-02-28T15:18:58.349Z,4.30
2023-02-28T15:21:47.537Z,3.17
2023-02-28T15:24:44.413Z,3.57
2023-02-28T15:27:33.880Z,3.47
2023-02-28T15:30:24.300Z,5.70
2023-02-28T15:33:14.933Z,2.63
2023-02-28T15:36:06.836Z,2.97
2023-02-28T15:38:55.036Z,3.70
2023-02-28T15:41:43.620Z,5.33
2023-02-28T15:44:36.900Z,3.70
2023-02-28T15:47:27.513Z,5.17
2023-02-28T15:50:15.408Z,7.33
2023-02-28T15:53:04.399Z,3.40
2023-02-28T15:56:05.649Z,3.37
2023-02-28T15:58:57.170Z,3.57
2023-02-28T16:01:44.606Z,9.77
2023-02-28T16:04:32.569Z,9.27
2023-02-28T16:07:20.035Z,4.50
2023-02-28T16:10:08.517Z,3.57
2023-02-28T16:12:56.900Z,3.20
2023-02-28T16:15:44.774Z,4.40
2023-02-28T16:18:32.148Z,3.83
2023-02-28T16:21:19.643Z,3.87
2023-02-28T16:24:07.325Z,3.57
2023-02-28T16:26:56.736Z,7.00
2023-02-28T16:29:45.848Z,4.70
2023-02-28T16:32:37.081Z,9.60
2023-02-28T16:35:24.860Z,5.27
2023-02-28T16:38:12.276Z,4.87
2023-02-28T16:41:00.996Z,4.23
2023-02-28T16:43:49.614Z,5.57
2023-02-28T16:46:37.398Z,6.03
2023-02-28T16:49:24.872Z,9.47
2023-02-28T16:52:15.534Z,5.67
2023-02-28T16:55:02.902Z,5.93
2023-02-28T16:57:52.792Z,4.83
2023-02-28T17:00:40.693Z,5.53
2023-02-28T17:03:33.636Z,2.77
2023-02-28T17:06:23.061Z,3.53
2023-02-28T17:09:16.379Z,4.10
2023-02-28T17:12:03.777Z,5.70
2023-02-28T17:14:51.121Z,4.27
2023-02-28T17:17:38.528Z,8.50
2023-02-28T17:20:27.332Z,4.13
2023-02-28T17:23:14.982Z,2.83
2023-02-28T17:26:02.850Z,4.47
2023-02-28T17:28:51.755Z,2.83
2023-02-28T17:31:41.362Z,6.17
2023-02-28T17:34:28.812Z,5.87
2023-02-28T17:37:16.274Z,3.53
2023-02-28T17:40:03.984Z,3.30
2023-02-28T17:42:53.135Z,4.47
2023-02-28T17:45:40.629Z,5.83
2023-02-28T17:48:28.490Z,7.93
2023-02-28T17:51:16.190Z,6.57
2023-02-28T17:54:03.642Z,5.13
2023-02-28T17:56:51.017Z,7.53
2023-02-28T17:59:38.432Z,4.07
2023-02-28T18:02:27.432Z,5.10
2023-02-28T18:05:15.158Z,5.60
2023-02-28T18:08:02.497Z,3.50
2023-02-28T18:10:49.915Z,2.83
2023-02-28T18:13:37.309Z,2.83
2023-02-28T18:16:24.725Z,4.23
2023-02-28T18:19:15.727Z,2.67
2023-02-28T18:22:03.089Z,2.90
2023-02-28T18:24:50.436Z,4.33
2023-02-28T18:27:37.785Z,4.50
2023-02-28T18:30:27.032Z,3.50
2023-02-28T18:33:14.389Z,2.80
2023-02-28T18:36:01.983Z,5.50
2023-02-28T18:38:50.553Z,4.07
2023-02-28T18:41:38.229Z,4.87
2023-02-28T18:44:25.617Z,4.70
2023-02-28T18:47:12.963Z,4.43
2023-02-28T18:50:01.836Z,6.47
2023-02-28T18:52:52.305Z,5.53
2023-02-28T18:55:39.765Z,6.33
2023-02-28T18:58:27.512Z,7.10
2023-02-28T19:01:17.001Z,5.60
2023-02-28T19:04:05.101Z,9.60
2023-02-28T19:06:52.466Z,6.93
2023-02-28T19:09:39.952Z,13.90
2023-02-28T19:12:27.303Z,20.00
2023-02-28T19:15:14.740Z,17.83
2023-02-28T19:18:02.240Z,12.47
2023-02-28T19:20:49.742Z,14.30
2023-02-28T19:23:37.672Z,14.73
2023-02-28T19:26:26.372Z,13.30
2023-02-28T19:29:13.743Z,7.23
2023-02-28T19:32:01.734Z,7.20
2023-02-28T19:34:49.156Z,6.57
2023-02-28T19:37:40.378Z,10.77
2023-02-28T19:40:27.801Z,10.30
2023-02-28T19:43:15.151Z,9.93
2023-02-28T19:46:02.685Z,10.30
2023-02-28T19:48:50.091Z,8.03
2023-02-28T19:51:38.301Z,7.40
2023-02-28T19:54:26.691Z,9.10
2023-02-28T19:57:14.123Z,10.23
2023-02-28T20:00:01.991Z,9.07
2023-02-28T20:02:49.405Z,10.73
2023-02-28T20:05:37.889Z,9.57
2023-02-28T20:08:25.228Z,9.50
2023-02-28T20:11:14.404Z,8.13
2023-02-28T20:14:05.240Z,8.67
2023-02-28T20:16:52.833Z,7.63
2023-02-28T20:19:40.590Z,12.07
2023-02-28T20:22:28.144Z,8.77
2023-02-28T20:25:16.918Z,15.63
2023-02-28T20:28:04.248Z,14.23
2023-02-28T20:30:51.641Z,9.10
2023-02-28T20:33:39.013Z,9.60
2023-02-28T20:36:26.557Z,6.13
2023-02-28T20:39:13.941Z,4.73
2023-02-28T20:42:01.305Z,4.30
2023-02-28T20:44:48.783Z,5.80
2023-02-28T20:47:36.155Z,6.63
2023-02-28T20:50:23.699Z,6.43
2023-02-28T20:53:11.046Z,4.33
2023-02-28T20:55:59.333Z,4.07
2023-02-28T20:58:48.385Z,4.00
2023-02-28T21:01:35.883Z,6.23
2023-02-28T21:04:23.235Z,6.90
2023-02-28T21:07:10.654Z,5.37
2023-02-28T21:09:58.047Z,3.63
2023-02-28T21:12:45.437Z,4.80
2023-02-28T21:15:32.872Z,6.00
2023-02-28T21:18:20.238Z,6.23
2023-02-28T21:21:08.694Z,7.00
2023-02-28T21:23:56.110Z,4.80
2023-02-28T21:26:44.493Z,7.33
2023-02-28T21:29:31.874Z,6.20
2023-02-28T21:32:19.249Z,6.87
2023-02-28T21:35:07.365Z,9.20
2023-02-28T21:37:54.759Z,5.03
2023-02-28T21:40:42.124Z,5.30
2023-02-28T21:43:29.450Z,6.23
2023-02-28T21:46:19.375Z,5.50
2023-02-28T21:49:06.783Z,5.73
2023-02-28T21:51:54.120Z,6.80
2023-02-28T21:54:41.470Z,6.27
2023-02-28T21:57:28.904Z,5.83
2023-02-28T22:00:16.963Z,5.67
2023-02-28T22:03:04.360Z,4.93
2023-02-28T22:05:51.704Z,11.10
2023-02-28T22:08:39.950Z,8.57
2023-02-28T22:11:27.484Z,12.33
2023-02-28T22:14:14.935Z,18.20
2023-02-28T22:17:02.369Z,11.10
2023-02-28T22:19:49.849Z,13.00
2023-02-28T22:22:37.186Z,14.23
2023-02-28T22:25:24.688Z,11.53
2023-02-28T22:28:12.064Z,5.43
2023-02-28T22:31:00.259Z,8.63
2023-02-28T22:33:48.722Z,9.50
2023-02-28T22:36:36.345Z,8.70
2023-02-28T22:39:23.687Z,5.43
2023-02-28T22:42:11.062Z,5.87
2023-02-28T22:44:58.457Z,8.87
2023-02-28T22:47:48.356Z,8.90
2023-02-28T22:50:35.955Z,9.60
2023-02-28T22:53:23.309Z,9.33
2023-02-28T22:56:11.406Z,7.87
2023-02-28T22:59:00.125Z,8.83
2023-02-28T23:01:47.566Z,8.37
2023-02-28T23:04:35.096Z,6.80
2023-02-28T23:07:22.530Z,8.83
2023-02-28T23:10:14.438Z,10.27
2023-02-28T23:13:01.811Z,9.93
2023-02-28T23:15:49.409Z,10.20
2023-02-28T23:18:36.833Z,7.80
2023-02-28T23:21:24.335Z,9.57
2023-02-28T23:24:12.722Z,7.80
2023-02-28T23:27:01.705Z,6.87
2023-02-28T23:29:49.091Z,7.93
2023-02-28T23:32:36.617Z,6.50
2023-02-28T23:35:24.028Z,12.43
2023-02-28T23:38:11.413Z,8.90
2023-02-28T23:40:58.737Z,12.37
2023-02-28T23:43:46.165Z,6.10
2023-02-28T23:46:33.573Z,9.43
2023-02-28T23:49:21.862Z,4.13
2023-02-28T23:52:09.254Z,5.00
2023-02-28T23:54:56.689Z,4.90
2023-02-28T23:57:44.090Z,4.80
